Ashville, Alabama
Current Conditions -  °F | °C
As of 9:15 AM on Wednesday 22 Oct 2014 (Local Time) from KGAD Reporting Station
Clear Clear  
Wind Chill: 54°   Ceiling: Unl
Heat Index: 54°   Visibility: 10mi
Dew Point: 39°   Wind: 12mph
Humidity: 58%   Direction: 20°NNE
Pressure: 30.18"   Gusts: NA
Location:  33.84°N, 86.25°W
Report Text: KGAD 221415Z 02010KT 10SM CLR 12/04 A3018 RMK AO1
Loading
Personal Weather Stations






























Interactive Weather Map
Tropical Storm Tracking
New forecast layout! Learn more

10-Day Weather Forecast

Advertisements
Track Severe Weather on mobile